sensor_id;sensor_type;location;lat;lon;timestamp;P1;durP1;ratioP1;P2;durP2;ratioP2
68365;SDS011;55283;51.466;5.478;2023-04-06T00:00:36;2.80;;;2.42;;
68365;SDS011;55283;51.466;5.478;2023-04-06T00:03:02;3.03;;;2.50;;
68365;SDS011;55283;51.466;5.478;2023-04-06T00:05:28;3.53;;;2.60;;
68365;SDS011;55283;51.466;5.478;2023-04-06T00:07:55;2.90;;;2.47;;
68365;SDS011;55283;51.466;5.478;2023-04-06T00:10:22;3.08;;;2.40;;
68365;SDS011;55283;51.466;5.478;2023-04-06T00:12:48;2.83;;;2.33;;
68365;SDS011;55283;51.466;5.478;2023-04-06T00:15:13;3.80;;;2.53;;
68365;SDS011;55283;51.466;5.478;2023-04-06T00:17:39;3.50;;;2.47;;
68365;SDS011;55283;51.466;5.478;2023-04-06T00:20:05;3.33;;;2.40;;
68365;SDS011;55283;51.466;5.478;2023-04-06T00:22:31;3.35;;;2.60;;
68365;SDS011;55283;51.466;5.478;2023-04-06T00:24:57;3.63;;;2.33;;
68365;SDS011;55283;51.466;5.478;2023-04-06T00:27:23;2.80;;;2.40;;
68365;SDS011;55283;51.466;5.478;2023-04-06T00:29:48;3.20;;;2.30;;
68365;SDS011;55283;51.466;5.478;2023-04-06T00:32:13;3.15;;;2.40;;
68365;SDS011;55283;51.466;5.478;2023-04-06T00:34:39;2.90;;;2.30;;
68365;SDS011;55283;51.466;5.478;2023-04-06T00:37:04;3.07;;;2.30;;
68365;SDS011;55283;51.466;5.478;2023-04-06T00:39:30;2.83;;;2.45;;
68365;SDS011;55283;51.466;5.478;2023-04-06T00:41:56;3.00;;;2.30;;
68365;SDS011;55283;51.466;5.478;2023-04-06T00:44:21;2.60;;;2.40;;
68365;SDS011;55283;51.466;5.478;2023-04-06T00:46:47;2.88;;;2.50;;
68365;SDS011;55283;51.466;5.478;2023-04-06T00:49:13;3.00;;;2.50;;
68365;SDS011;55283;51.466;5.478;2023-04-06T00:51:38;2.92;;;2.33;;
68365;SDS011;55283;51.466;5.478;2023-04-06T00:54:04;3.47;;;2.43;;
68365;SDS011;55283;51.466;5.478;2023-04-06T00:56:30;2.88;;;2.25;;
68365;SDS011;55283;51.466;5.478;2023-04-06T00:58:56;2.53;;;2.30;;
68365;SDS011;55283;51.466;5.478;2023-04-06T01:01:22;2.30;;;2.10;;
68365;SDS011;55283;51.466;5.478;2023-04-06T01:03:48;2.43;;;2.20;;
68365;SDS011;55283;51.466;5.478;2023-04-06T01:06:15;3.53;;;2.45;;
68365;SDS011;55283;51.466;5.478;2023-04-06T01:08:40;3.30;;;2.27;;
68365;SDS011;55283;51.466;5.478;2023-04-06T01:11:05;3.13;;;2.33;;
68365;SDS011;55283;51.466;5.478;2023-04-06T01:13:31;2.63;;;2.20;;
68365;SDS011;55283;51.466;5.478;2023-04-06T01:15:56;3.30;;;2.53;;
68365;SDS011;55283;51.466;5.478;2023-04-06T01:18:29;2.80;;;2.30;;
68365;SDS011;55283;51.466;5.478;2023-04-06T01:20:55;2.50;;;2.30;;
68365;SDS011;55283;51.466;5.478;2023-04-06T01:23:20;3.50;;;2.22;;
68365;SDS011;55283;51.466;5.478;2023-04-06T01:25:46;2.90;;;2.30;;
68365;SDS011;55283;51.466;5.478;2023-04-06T01:28:11;2.80;;;2.33;;
68365;SDS011;55283;51.466;5.478;2023-04-06T01:30:37;2.80;;;2.40;;
68365;SDS011;55283;51.466;5.478;2023-04-06T01:33:02;2.73;;;2.20;;
68365;SDS011;55283;51.466;5.478;2023-04-06T01:35:28;2.90;;;2.30;;
68365;SDS011;55283;51.466;5.478;2023-04-06T01:37:55;2.55;;;2.20;;
68365;SDS011;55283;51.466;5.478;2023-04-06T01:40:20;3.30;;;2.30;;
68365;SDS011;55283;51.466;5.478;2023-04-06T01:42:46;2.30;;;2.10;;
68365;SDS011;55283;51.466;5.478;2023-04-06T01:45:12;2.47;;;2.20;;
68365;SDS011;55283;51.466;5.478;2023-04-06T01:47:37;2.80;;;2.33;;
68365;SDS011;55283;51.466;5.478;2023-04-06T01:50:03;2.67;;;2.20;;
68365;SDS011;55283;51.466;5.478;2023-04-06T01:52:31;2.50;;;2.20;;
68365;SDS011;55283;51.466;5.478;2023-04-06T01:54:58;2.47;;;2.15;;
68365;SDS011;55283;51.466;5.478;2023-04-06T01:57:23;2.78;;;2.30;;
68365;SDS011;55283;51.466;5.478;2023-04-06T01:59:50;3.17;;;2.30;;
68365;SDS011;55283;51.466;5.478;2023-04-06T02:02:16;2.85;;;2.40;;
68365;SDS011;55283;51.466;5.478;2023-04-06T02:04:41;2.30;;;2.10;;
68365;SDS011;55283;51.466;5.478;2023-04-06T02:07:07;2.47;;;1.97;;
68365;SDS011;55283;51.466;5.478;2023-04-06T02:09:32;2.60;;;2.20;;
68365;SDS011;55283;51.466;5.478;2023-04-06T02:11:57;2.67;;;2.20;;
68365;SDS011;55283;51.466;5.478;2023-04-06T02:14:24;2.57;;;2.30;;
68365;SDS011;55283;51.466;5.478;2023-04-06T02:16:50;2.60;;;2.30;;
68365;SDS011;55283;51.466;5.478;2023-04-06T02:19:16;2.63;;;2.40;;
68365;SDS011;55283;51.466;5.478;2023-04-06T02:21:41;2.80;;;2.20;;
68365;SDS011;55283;51.466;5.478;2023-04-06T02:24:07;2.60;;;2.17;;
68365;SDS011;55283;51.466;5.478;2023-04-06T02:26:32;2.80;;;2.40;;
68365;SDS011;55283;51.466;5.478;2023-04-06T02:28:58;2.77;;;2.30;;
68365;SDS011;55283;51.466;5.478;2023-04-06T02:31:23;2.93;;;2.33;;
68365;SDS011;55283;51.466;5.478;2023-04-06T02:33:49;2.55;;;2.10;;
68365;SDS011;55283;51.466;5.478;2023-04-06T02:36:14;2.97;;;2.30;;
68365;SDS011;55283;51.466;5.478;2023-04-06T02:38:40;2.20;;;2.00;;
68365;SDS011;55283;51.466;5.478;2023-04-06T02:41:05;2.80;;;2.10;;
68365;SDS011;55283;51.466;5.478;2023-04-06T02:43:32;2.40;;;2.10;;
68365;SDS011;55283;51.466;5.478;2023-04-06T02:45:57;2.88;;;2.40;;
68365;SDS011;55283;51.466;5.478;2023-04-06T02:48:23;3.10;;;2.30;;
68365;SDS011;55283;51.466;5.478;2023-04-06T02:50:48;2.93;;;2.10;;
68365;SDS011;55283;51.466;5.478;2023-04-06T02:53:14;2.20;;;2.00;;
68365;SDS011;55283;51.466;5.478;2023-04-06T02:55:39;2.40;;;2.07;;
68365;SDS011;55283;51.466;5.478;2023-04-06T02:58:05;2.63;;;2.17;;
68365;SDS011;55283;51.466;5.478;2023-04-06T03:00:30;2.40;;;2.20;;
68365;SDS011;55283;51.466;5.478;2023-04-06T03:02:56;2.17;;;1.97;;
68365;SDS011;55283;51.466;5.478;2023-04-06T03:05:21;2.33;;;2.03;;
68365;SDS011;55283;51.466;5.478;2023-04-06T03:07:47;3.33;;;2.20;;
68365;SDS011;55283;51.466;5.478;2023-04-06T03:10:12;2.30;;;2.07;;
68365;SDS011;55283;51.466;5.478;2023-04-06T03:12:38;2.33;;;2.05;;
68365;SDS011;55283;51.466;5.478;2023-04-06T03:15:03;2.17;;;1.90;;
68365;SDS011;55283;51.466;5.478;2023-04-06T03:17:29;2.65;;;2.20;;
68365;SDS011;55283;51.466;5.478;2023-04-06T03:19:55;2.30;;;2.10;;
68365;SDS011;55283;51.466;5.478;2023-04-06T03:22:20;2.30;;;2.00;;
68365;SDS011;55283;51.466;5.478;2023-04-06T03:24:45;2.50;;;2.30;;
68365;SDS011;55283;51.466;5.478;2023-04-06T03:27:11;2.50;;;2.10;;
68365;SDS011;55283;51.466;5.478;2023-04-06T03:29:36;2.40;;;2.17;;
68365;SDS011;55283;51.466;5.478;2023-04-06T03:32:02;2.27;;;2.07;;
68365;SDS011;55283;51.466;5.478;2023-04-06T03:34:27;2.55;;;2.15;;
68365;SDS011;55283;51.466;5.478;2023-04-06T03:36:53;2.23;;;2.03;;
68365;SDS011;55283;51.466;5.478;2023-04-06T03:39:18;2.73;;;2.03;;
68365;SDS011;55283;51.466;5.478;2023-04-06T03:41:44;2.60;;;2.20;;
68365;SDS011;55283;51.466;5.478;2023-04-06T03:44:10;2.40;;;2.00;;
68365;SDS011;55283;51.466;5.478;2023-04-06T03:46:35;3.93;;;2.20;;
68365;SDS011;55283;51.466;5.478;2023-04-06T03:49:01;2.40;;;2.17;;
68365;SDS011;55283;51.466;5.478;2023-04-06T03:51:27;2.27;;;2.07;;
68365;SDS011;55283;51.466;5.478;2023-04-06T03:53:52;2.40;;;2.20;;
68365;SDS011;55283;51.466;5.478;2023-04-06T03:56:18;2.38;;;1.85;;
68365;SDS011;55283;51.466;5.478;2023-04-06T03:58:43;2.30;;;2.10;;
68365;SDS011;55283;51.466;5.478;2023-04-06T04:01:10;2.50;;;2.30;;
68365;SDS011;55283;51.466;5.478;2023-04-06T04:03:35;2.10;;;1.90;;
68365;SDS011;55283;51.466;5.478;2023-04-06T04:06:01;2.40;;;2.07;;
68365;SDS011;55283;51.466;5.478;2023-04-06T04:08:27;2.60;;;2.20;;
68365;SDS011;55283;51.466;5.478;2023-04-06T04:10:52;2.77;;;2.27;;
68365;SDS011;55283;51.466;5.478;2023-04-06T04:13:17;2.33;;;2.07;;
68365;SDS011;55283;51.466;5.478;2023-04-06T04:15:43;2.73;;;2.20;;
68365;SDS011;55283;51.466;5.478;2023-04-06T04:18:09;2.40;;;2.00;;
68365;SDS011;55283;51.466;5.478;2023-04-06T04:20:34;2.10;;;1.90;;
68365;SDS011;55283;51.466;5.478;2023-04-06T04:23:00;2.33;;;2.13;;
68365;SDS011;55283;51.466;5.478;2023-04-06T04:25:25;2.27;;;1.93;;
68365;SDS011;55283;51.466;5.478;2023-04-06T04:27:50;3.70;;;2.47;;
68365;SDS011;55283;51.466;5.478;2023-04-06T04:30:16;2.80;;;2.08;;
68365;SDS011;55283;51.466;5.478;2023-04-06T04:32:41;2.37;;;2.17;;
68365;SDS011;55283;51.466;5.478;2023-04-06T04:35:07;2.93;;;2.07;;
68365;SDS011;55283;51.466;5.478;2023-04-06T04:37:33;2.35;;;1.90;;
68365;SDS011;55283;51.466;5.478;2023-04-06T04:40:00;2.40;;;2.20;;
68365;SDS011;55283;51.466;5.478;2023-04-06T04:42:25;2.70;;;2.10;;
68365;SDS011;55283;51.466;5.478;2023-04-06T04:44:51;2.43;;;1.90;;
68365;SDS011;55283;51.466;5.478;2023-04-06T04:47:17;2.10;;;1.90;;
68365;SDS011;55283;51.466;5.478;2023-04-06T04:49:42;2.13;;;1.87;;
68365;SDS011;55283;51.466;5.478;2023-04-06T04:52:07;2.77;;;2.00;;
68365;SDS011;55283;51.466;5.478;2023-04-06T04:54:33;2.43;;;2.10;;
68365;SDS011;55283;51.466;5.478;2023-04-06T04:56:58;2.58;;;2.15;;
68365;SDS011;55283;51.466;5.478;2023-04-06T04:59:24;2.47;;;2.03;;
68365;SDS011;55283;51.466;5.478;2023-04-06T05:01:49;2.63;;;2.10;;
68365;SDS011;55283;51.466;5.478;2023-04-06T05:04:15;2.80;;;2.20;;
68365;SDS011;55283;51.466;5.478;2023-04-06T05:06:40;2.10;;;1.90;;
68365;SDS011;55283;51.466;5.478;2023-04-06T05:09:05;3.03;;;2.17;;
68365;SDS011;55283;51.466;5.478;2023-04-06T05:11:31;2.50;;;2.27;;
68365;SDS011;55283;51.466;5.478;2023-04-06T05:13:56;2.50;;;2.30;;
68365;SDS011;55283;51.466;5.478;2023-04-06T05:16:22;2.60;;;2.07;;
68365;SDS011;55283;51.466;5.478;2023-04-06T05:18:47;2.30;;;2.10;;
68365;SDS011;55283;51.466;5.478;2023-04-06T05:21:13;2.33;;;2.10;;
68365;SDS011;55283;51.466;5.478;2023-04-06T05:23:39;2.30;;;2.00;;
68365;SDS011;55283;51.466;5.478;2023-04-06T05:26:04;2.20;;;2.00;;
68365;SDS011;55283;51.466;5.478;2023-04-06T05:28:30;2.10;;;1.90;;
68365;SDS011;55283;51.466;5.478;2023-04-06T05:30:55;4.73;;;1.90;;
68365;SDS011;55283;51.466;5.478;2023-04-06T05:33:22;2.30;;;1.80;;
68365;SDS011;55283;51.466;5.478;2023-04-06T05:35:48;4.50;;;2.05;;
68365;SDS011;55283;51.466;5.478;2023-04-06T05:38:13;4.80;;;2.10;;
68365;SDS011;55283;51.466;5.478;2023-04-06T05:40:39;3.35;;;1.92;;
68365;SDS011;55283;51.466;5.478;2023-04-06T05:43:06;2.13;;;1.90;;
68365;SDS011;55283;51.466;5.478;2023-04-06T05:45:32;2.72;;;1.95;;
68365;SDS011;55283;51.466;5.478;2023-04-06T05:47:57;2.30;;;2.07;;
68365;SDS011;55283;51.466;5.478;2023-04-06T05:50:23;5.82;;;2.10;;
68365;SDS011;55283;51.466;5.478;2023-04-06T05:52:48;2.40;;;1.90;;
68365;SDS011;55283;51.466;5.478;2023-04-06T05:55:13;3.60;;;2.13;;
68365;SDS011;55283;51.466;5.478;2023-04-06T05:57:39;6.43;;;1.80;;
68365;SDS011;55283;51.466;5.478;2023-04-06T06:00:05;5.70;;;1.90;;
68365;SDS011;55283;51.466;5.478;2023-04-06T06:02:33;3.13;;;1.80;;
68365;SDS011;55283;51.466;5.478;2023-04-06T06:04:59;3.40;;;1.90;;
68365;SDS011;55283;51.466;5.478;2023-04-06T06:07:25;3.43;;;2.07;;
68365;SDS011;55283;51.466;5.478;2023-04-06T06:09:50;2.20;;;1.85;;
68365;SDS011;55283;51.466;5.478;2023-04-06T06:12:16;3.17;;;1.90;;
68365;SDS011;55283;51.466;5.478;2023-04-06T06:14:41;4.30;;;1.93;;
68365;SDS011;55283;51.466;5.478;2023-04-06T06:17:06;7.53;;;2.17;;
68365;SDS011;55283;51.466;5.478;2023-04-06T06:19:32;4.63;;;2.30;;
68365;SDS011;55283;51.466;5.478;2023-04-06T06:21:57;4.20;;;2.50;;
68365;SDS011;55283;51.466;5.478;2023-04-06T06:24:23;6.18;;;3.30;;
68365;SDS011;55283;51.466;5.478;2023-04-06T06:26:49;5.07;;;3.00;;
68365;SDS011;55283;51.466;5.478;2023-04-06T06:29:14;4.63;;;2.63;;
68365;SDS011;55283;51.466;5.478;2023-04-06T06:31:40;7.60;;;2.53;;
68365;SDS011;55283;51.466;5.478;2023-04-06T06:34:05;2.50;;;2.10;;
68365;SDS011;55283;51.466;5.478;2023-04-06T06:36:31;4.40;;;2.43;;
68365;SDS011;55283;51.466;5.478;2023-04-06T06:38:58;5.25;;;2.58;;
68365;SDS011;55283;51.466;5.478;2023-04-06T06:41:25;10.77;;;6.63;;
68365;SDS011;55283;51.466;5.478;2023-04-06T06:43:51;11.67;;;7.40;;
68365;SDS011;55283;51.466;5.478;2023-04-06T06:46:16;15.40;;;9.07;;
68365;SDS011;55283;51.466;5.478;2023-04-06T06:48:42;19.07;;;9.20;;
68365;SDS011;55283;51.466;5.478;2023-04-06T06:51:07;16.60;;;9.90;;
68365;SDS011;55283;51.466;5.478;2023-04-06T06:53:34;14.95;;;10.50;;
68365;SDS011;55283;51.466;5.478;2023-04-06T06:56:00;18.40;;;10.67;;
68365;SDS011;55283;51.466;5.478;2023-04-06T06:58:25;19.45;;;10.98;;
68365;SDS011;55283;51.466;5.478;2023-04-06T07:00:55;17.10;;;10.83;;
68365;SDS011;55283;51.466;5.478;2023-04-06T07:03:23;17.70;;;10.57;;
68365;SDS011;55283;51.466;5.478;2023-04-06T07:05:49;18.40;;;10.93;;
68365;SDS011;55283;51.466;5.478;2023-04-06T07:08:19;15.88;;;10.63;;
68365;SDS011;55283;51.466;5.478;2023-04-06T07:10:45;16.92;;;10.73;;
68365;SDS011;55283;51.466;5.478;2023-04-06T07:13:11;15.27;;;9.97;;
68365;SDS011;55283;51.466;5.478;2023-04-06T07:15:37;18.10;;;11.05;;
68365;SDS011;55283;51.466;5.478;2023-04-06T07:18:02;13.47;;;9.07;;
68365;SDS011;55283;51.466;5.478;2023-04-06T07:20:28;15.05;;;9.88;;
68365;SDS011;55283;51.466;5.478;2023-04-06T07:22:53;13.10;;;9.13;;
68365;SDS011;55283;51.466;5.478;2023-04-06T07:25:19;17.27;;;9.55;;
68365;SDS011;55283;51.466;5.478;2023-04-06T07:27:45;14.90;;;8.70;;
68365;SDS011;55283;51.466;5.478;2023-04-06T07:30:11;10.80;;;7.70;;
68365;SDS011;55283;51.466;5.478;2023-04-06T07:32:36;13.15;;;7.40;;
68365;SDS011;55283;51.466;5.478;2023-04-06T07:35:02;12.53;;;7.53;;
68365;SDS011;55283;51.466;5.478;2023-04-06T07:37:28;12.45;;;7.35;;
68365;SDS011;55283;51.466;5.478;2023-04-06T07:39:54;10.63;;;6.50;;
68365;SDS011;55283;51.466;5.478;2023-04-06T07:42:19;9.65;;;6.53;;
68365;SDS011;55283;51.466;5.478;2023-04-06T07:44:45;11.63;;;6.77;;
68365;SDS011;55283;51.466;5.478;2023-04-06T07:47:10;8.90;;;6.13;;
68365;SDS011;55283;51.466;5.478;2023-04-06T07:49:36;8.80;;;6.10;;
68365;SDS011;55283;51.466;5.478;2023-04-06T07:52:01;8.40;;;6.10;;
68365;SDS011;55283;51.466;5.478;2023-04-06T07:54:28;10.18;;;5.78;;
68365;SDS011;55283;51.466;5.478;2023-04-06T07:56:53;7.83;;;5.33;;
68365;SDS011;55283;51.466;5.478;2023-04-06T07:59:19;8.33;;;5.37;;
68365;SDS011;55283;51.466;5.478;2023-04-06T08:01:44;9.02;;;5.55;;
68365;SDS011;55283;51.466;5.478;2023-04-06T08:04:10;8.43;;;5.27;;
68365;SDS011;55283;51.466;5.478;2023-04-06T08:06:35;8.40;;;5.30;;
68365;SDS011;55283;51.466;5.478;2023-04-06T08:09:01;9.30;;;4.95;;
68365;SDS011;55283;51.466;5.478;2023-04-06T08:11:28;9.05;;;5.03;;
68365;SDS011;55283;51.466;5.478;2023-04-06T08:13:54;7.07;;;4.90;;
68365;SDS011;55283;51.466;5.478;2023-04-06T08:16:21;8.98;;;4.68;;
68365;SDS011;55283;51.466;5.478;2023-04-06T08:18:47;8.77;;;4.40;;
68365;SDS011;55283;51.466;5.478;2023-04-06T08:21:12;7.72;;;4.63;;
68365;SDS011;55283;51.466;5.478;2023-04-06T08:23:38;8.33;;;4.17;;
68365;SDS011;55283;51.466;5.478;2023-04-06T08:26:04;8.23;;;4.47;;
68365;SDS011;55283;51.466;5.478;2023-04-06T08:28:29;14.20;;;4.20;;
68365;SDS011;55283;51.466;5.478;2023-04-06T08:30:55;6.87;;;3.73;;
68365;SDS011;55283;51.466;5.478;2023-04-06T08:33:20;6.27;;;3.83;;
68365;SDS011;55283;51.466;5.478;2023-04-06T08:35:46;8.75;;;3.80;;
68365;SDS011;55283;51.466;5.478;2023-04-06T08:38:11;10.27;;;5.47;;
68365;SDS011;55283;51.466;5.478;2023-04-06T08:40:37;9.17;;;5.17;;
68365;SDS011;55283;51.466;5.478;2023-04-06T08:43:03;6.35;;;4.50;;
68365;SDS011;55283;51.466;5.478;2023-04-06T08:45:33;9.27;;;4.82;;
68365;SDS011;55283;51.466;5.478;2023-04-06T08:47:59;6.83;;;4.20;;
68365;SDS011;55283;51.466;5.478;2023-04-06T08:50:26;7.72;;;4.38;;
68365;SDS011;55283;51.466;5.478;2023-04-06T08:52:54;6.93;;;4.07;;
68365;SDS011;55283;51.466;5.478;2023-04-06T08:55:20;6.73;;;3.73;;
68365;SDS011;55283;51.466;5.478;2023-04-06T08:57:47;7.93;;;4.13;;
68365;SDS011;55283;51.466;5.478;2023-04-06T09:00:14;8.52;;;3.88;;
68365;SDS011;55283;51.466;5.478;2023-04-06T09:02:42;8.47;;;4.13;;
68365;SDS011;55283;51.466;5.478;2023-04-06T09:05:10;7.47;;;3.50;;
68365;SDS011;55283;51.466;5.478;2023-04-06T09:07:36;7.43;;;3.70;;
68365;SDS011;55283;51.466;5.478;2023-04-06T09:10:02;9.57;;;4.30;;
68365;SDS011;55283;51.466;5.478;2023-04-06T09:12:31;6.22;;;3.50;;
68365;SDS011;55283;51.466;5.478;2023-04-06T09:14:58;6.63;;;3.80;;
68365;SDS011;55283;51.466;5.478;2023-04-06T09:17:25;6.77;;;3.57;;
68365;SDS011;55283;51.466;5.478;2023-04-06T09:19:52;5.28;;;3.30;;
68365;SDS011;55283;51.466;5.478;2023-04-06T09:22:19;5.70;;;3.00;;
68365;SDS011;55283;51.466;5.478;2023-04-06T09:24:54;6.38;;;3.45;;
68365;SDS011;55283;51.466;5.478;2023-04-06T09:27:32;6.30;;;3.10;;
68365;SDS011;55283;51.466;5.478;2023-04-06T09:32:30;6.30;;;2.85;;
68365;SDS011;55283;51.466;5.478;2023-04-06T09:35:05;6.47;;;2.97;;
68365;SDS011;55283;51.466;5.478;2023-04-06T09:37:32;8.18;;;3.15;;
68365;SDS011;55283;51.466;5.478;2023-04-06T09:40:04;6.67;;;2.80;;
68365;SDS011;55283;51.466;5.478;2023-04-06T09:42:32;4.53;;;2.90;;
68365;SDS011;55283;51.466;5.478;2023-04-06T09:44:57;6.57;;;3.17;;
68365;SDS011;55283;51.466;5.478;2023-04-06T09:47:23;5.20;;;3.20;;
68365;SDS011;55283;51.466;5.478;2023-04-06T09:49:52;6.55;;;2.75;;
68365;SDS011;55283;51.466;5.478;2023-04-06T09:52:22;6.30;;;2.92;;
68365;SDS011;55283;51.466;5.478;2023-04-06T09:54:52;5.30;;;2.90;;
68365;SDS011;55283;51.466;5.478;2023-04-06T09:57:25;6.05;;;2.80;;
68365;SDS011;55283;51.466;5.478;2023-04-06T10:00:04;5.78;;;2.63;;
68365;SDS011;55283;51.466;5.478;2023-04-06T10:02:39;5.03;;;2.50;;
68365;SDS011;55283;51.466;5.478;2023-04-06T10:08:03;5.65;;;2.40;;
68365;SDS011;55283;51.466;5.478;2023-04-06T10:10:40;5.95;;;2.50;;
68365;SDS011;55283;51.466;5.478;2023-04-06T10:13:06;4.77;;;2.47;;
68365;SDS011;55283;51.466;5.478;2023-04-06T10:15:35;6.53;;;2.92;;
68365;SDS011;55283;51.466;5.478;2023-04-06T10:18:03;4.90;;;2.53;;
68365;SDS011;55283;51.466;5.478;2023-04-06T10:23:15;3.60;;;2.50;;
68365;SDS011;55283;51.466;5.478;2023-04-06T10:25:55;4.93;;;2.67;;
68365;SDS011;55283;51.466;5.478;2023-04-06T10:28:22;5.45;;;2.80;;
68365;SDS011;55283;51.466;5.478;2023-04-06T10:30:48;5.47;;;2.80;;
68365;SDS011;55283;51.466;5.478;2023-04-06T10:33:15;4.40;;;2.72;;
68365;SDS011;55283;51.466;5.478;2023-04-06T10:35:41;5.15;;;2.80;;
68365;SDS011;55283;51.466;5.478;2023-04-06T10:38:07;6.20;;;2.90;;
68365;SDS011;55283;51.466;5.478;2023-04-06T10:40:35;5.33;;;2.80;;
68365;SDS011;55283;51.466;5.478;2023-04-06T10:45:38;5.88;;;2.70;;
68365;SDS011;55283;51.466;5.478;2023-04-06T10:48:14;5.50;;;2.75;;
68365;SDS011;55283;51.466;5.478;2023-04-06T10:50:41;4.33;;;2.40;;
68365;SDS011;55283;51.466;5.478;2023-04-06T10:53:11;6.20;;;2.42;;
68365;SDS011;55283;51.466;5.478;2023-04-06T10:55:38;4.07;;;2.33;;
68365;SDS011;55283;51.466;5.478;2023-04-06T10:58:06;6.28;;;2.70;;
68365;SDS011;55283;51.466;5.478;2023-04-06T11:00:33;5.10;;;2.60;;
68365;SDS011;55283;51.466;5.478;2023-04-06T11:02:59;3.37;;;2.30;;
68365;SDS011;55283;51.466;5.478;2023-04-06T11:05:26;3.85;;;2.42;;
68365;SDS011;55283;51.466;5.478;2023-04-06T11:07:51;5.40;;;2.30;;
68365;SDS011;55283;51.466;5.478;2023-04-06T11:10:20;6.60;;;2.40;;
68365;SDS011;55283;51.466;5.478;2023-04-06T11:12:52;4.37;;;2.37;;
68365;SDS011;55283;51.466;5.478;2023-04-06T11:15:21;4.32;;;2.22;;
68365;SDS011;55283;51.466;5.478;2023-04-06T11:17:47;6.23;;;2.47;;
68365;SDS011;55283;51.466;5.478;2023-04-06T11:20:14;3.55;;;2.50;;
68365;SDS011;55283;51.466;5.478;2023-04-06T11:22:51;5.05;;;2.50;;
68365;SDS011;55283;51.466;5.478;2023-04-06T11:25:17;3.87;;;2.30;;
68365;SDS011;55283;51.466;5.478;2023-04-06T11:27:43;3.40;;;2.40;;
68365;SDS011;55283;51.466;5.478;2023-04-06T11:30:09;3.40;;;2.15;;
68365;SDS011;55283;51.466;5.478;2023-04-06T11:32:42;5.10;;;2.50;;
68365;SDS011;55283;51.466;5.478;2023-04-06T11:35:26;4.43;;;2.20;;
68365;SDS011;55283;51.466;5.478;2023-04-06T11:37:52;4.20;;;2.47;;
68365;SDS011;55283;51.466;5.478;2023-04-06T11:40:21;4.93;;;2.40;;
68365;SDS011;55283;51.466;5.478;2023-04-06T11:42:54;5.97;;;2.40;;
68365;SDS011;55283;51.466;5.478;2023-04-06T11:45:20;4.83;;;2.10;;
68365;SDS011;55283;51.466;5.478;2023-04-06T11:47:54;4.53;;;2.40;;
68365;SDS011;55283;51.466;5.478;2023-04-06T11:50:21;4.15;;;2.28;;
68365;SDS011;55283;51.466;5.478;2023-04-06T11:52:46;3.43;;;2.20;;
68365;SDS011;55283;51.466;5.478;2023-04-06T11:55:23;4.30;;;2.40;;
68365;SDS011;55283;51.466;5.478;2023-04-06T11:57:49;3.60;;;2.15;;
68365;SDS011;55283;51.466;5.478;2023-04-06T12:00:16;3.50;;;2.20;;
68365;SDS011;55283;51.466;5.478;2023-04-06T12:02:45;2.53;;;2.17;;
68365;SDS011;55283;51.466;5.478;2023-04-06T12:05:11;2.97;;;2.10;;
68365;SDS011;55283;51.466;5.478;2023-04-06T12:07:36;3.67;;;2.50;;
68365;SDS011;55283;51.466;5.478;2023-04-06T12:10:02;3.20;;;2.30;;
68365;SDS011;55283;51.466;5.478;2023-04-06T12:12:28;4.57;;;2.30;;
68365;SDS011;55283;51.466;5.478;2023-04-06T12:14:53;3.77;;;2.60;;
68365;SDS011;55283;51.466;5.478;2023-04-06T12:17:20;4.20;;;2.27;;
68365;SDS011;55283;51.466;5.478;2023-04-06T12:19:45;3.20;;;2.33;;
68365;SDS011;55283;51.466;5.478;2023-04-06T12:22:11;3.87;;;2.27;;
68365;SDS011;55283;51.466;5.478;2023-04-06T12:24:37;2.93;;;2.00;;
68365;SDS011;55283;51.466;5.478;2023-04-06T12:27:02;2.75;;;2.10;;
68365;SDS011;55283;51.466;5.478;2023-04-06T12:29:28;3.10;;;2.10;;
68365;SDS011;55283;51.466;5.478;2023-04-06T12:31:53;5.87;;;2.13;;
68365;SDS011;55283;51.466;5.478;2023-04-06T12:34:19;3.10;;;1.95;;
68365;SDS011;55283;51.466;5.478;2023-04-06T12:36:44;2.57;;;2.10;;
68365;SDS011;55283;51.466;5.478;2023-04-06T12:39:10;3.87;;;2.40;;
68365;SDS011;55283;51.466;5.478;2023-04-06T12:41:36;4.93;;;2.08;;
68365;SDS011;55283;51.466;5.478;2023-04-06T12:44:02;3.03;;;2.37;;
68365;SDS011;55283;51.466;5.478;2023-04-06T12:46:27;3.53;;;2.22;;
68365;SDS011;55283;51.466;5.478;2023-04-06T12:48:55;3.93;;;2.10;;
68365;SDS011;55283;51.466;5.478;2023-04-06T12:51:21;3.15;;;1.90;;
68365;SDS011;55283;51.466;5.478;2023-04-06T12:53:47;4.15;;;2.08;;
68365;SDS011;55283;51.466;5.478;2023-04-06T12:56:14;4.43;;;2.00;;
68365;SDS011;55283;51.466;5.478;2023-04-06T12:58:43;2.80;;;2.10;;
68365;SDS011;55283;51.466;5.478;2023-04-06T13:01:10;3.38;;;2.05;;
68365;SDS011;55283;51.466;5.478;2023-04-06T13:03:37;3.53;;;2.03;;
68365;SDS011;55283;51.466;5.478;2023-04-06T13:06:03;3.05;;;2.00;;
68365;SDS011;55283;51.466;5.478;2023-04-06T13:08:29;2.10;;;1.70;;
68365;SDS011;55283;51.466;5.478;2023-04-06T13:10:54;2.83;;;2.17;;
68365;SDS011;55283;51.466;5.478;2023-04-06T13:13:23;2.67;;;2.10;;
68365;SDS011;55283;51.466;5.478;2023-04-06T13:15:51;2.58;;;1.95;;
68365;SDS011;55283;51.466;5.478;2023-04-06T13:18:20;3.13;;;1.92;;
68365;SDS011;55283;51.466;5.478;2023-04-06T13:20:47;2.87;;;1.90;;
68365;SDS011;55283;51.466;5.478;2023-04-06T13:23:13;3.15;;;2.05;;
68365;SDS011;55283;51.466;5.478;2023-04-06T13:25:38;2.53;;;2.00;;
68365;SDS011;55283;51.466;5.478;2023-04-06T13:28:04;2.80;;;2.07;;
68365;SDS011;55283;51.466;5.478;2023-04-06T13:30:29;2.60;;;1.67;;
68365;SDS011;55283;51.466;5.478;2023-04-06T13:32:55;2.60;;;1.90;;
68365;SDS011;55283;51.466;5.478;2023-04-06T13:35:21;4.27;;;1.93;;
68365;SDS011;55283;51.466;5.478;2023-04-06T13:37:46;4.50;;;2.07;;
68365;SDS011;55283;51.466;5.478;2023-04-06T13:40:13;2.33;;;1.90;;
68365;SDS011;55283;51.466;5.478;2023-04-06T13:42:38;3.58;;;2.03;;
68365;SDS011;55283;51.466;5.478;2023-04-06T13:45:05;3.10;;;2.07;;
68365;SDS011;55283;51.466;5.478;2023-04-06T13:47:32;3.28;;;2.00;;
68365;SDS011;55283;51.466;5.478;2023-04-06T13:49:57;2.22;;;1.75;;
68365;SDS011;55283;51.466;5.478;2023-04-06T13:52:23;3.47;;;2.17;;
68365;SDS011;55283;51.466;5.478;2023-04-06T13:54:49;2.63;;;2.00;;
68365;SDS011;55283;51.466;5.478;2023-04-06T13:57:15;2.77;;;1.80;;
68365;SDS011;55283;51.466;5.478;2023-04-06T13:59:41;2.00;;;1.80;;
68365;SDS011;55283;51.466;5.478;2023-04-06T14:02:07;4.00;;;1.90;;
68365;SDS011;55283;51.466;5.478;2023-04-06T14:04:34;3.53;;;1.80;;
68365;SDS011;55283;51.466;5.478;2023-04-06T14:07:01;3.53;;;1.83;;
68365;SDS011;55283;51.466;5.478;2023-04-06T14:09:27;2.63;;;1.80;;
68365;SDS011;55283;51.466;5.478;2023-04-06T14:11:53;3.88;;;1.80;;
68365;SDS011;55283;51.466;5.478;2023-04-06T14:14:19;2.28;;;1.80;;
68365;SDS011;55283;51.466;5.478;2023-04-06T14:16:46;5.27;;;2.20;;
68365;SDS011;55283;51.466;5.478;2023-04-06T14:19:12;5.55;;;2.17;;
68365;SDS011;55283;51.466;5.478;2023-04-06T14:21:40;3.00;;;1.67;;
68365;SDS011;55283;51.466;5.478;2023-04-06T14:24:06;2.87;;;1.70;;
68365;SDS011;55283;51.466;5.478;2023-04-06T14:26:33;3.60;;;1.90;;
68365;SDS011;55283;51.466;5.478;2023-04-06T14:28:59;2.83;;;1.80;;
68365;SDS011;55283;51.466;5.478;2023-04-06T14:31:25;2.65;;;1.80;;
68365;SDS011;55283;51.466;5.478;2023-04-06T14:33:52;3.00;;;1.60;;
68365;SDS011;55283;51.466;5.478;2023-04-06T14:36:17;2.17;;;1.67;;
68365;SDS011;55283;51.466;5.478;2023-04-06T14:38:43;2.57;;;1.83;;
68365;SDS011;55283;51.466;5.478;2023-04-06T14:41:22;3.13;;;1.83;;
68365;SDS011;55283;51.466;5.478;2023-04-06T14:43:48;2.78;;;1.80;;
68365;SDS011;55283;51.466;5.478;2023-04-06T14:46:14;2.13;;;1.70;;
68365;SDS011;55283;51.466;5.478;2023-04-06T14:48:43;2.60;;;1.90;;
68365;SDS011;55283;51.466;5.478;2023-04-06T14:51:08;2.97;;;1.98;;